WSSS Airport Information

Runway Information
Runway 02C Length 13123 ft width 197 ft
Elevation 15 ft Threshold ft Heading 23
Runway 20C Length 13123 ft Width 197 ft
Elevation 15 ft Threshold ft Heading 203
Runway 02R Length 13123 ft width 197 ft
Elevation 16 ft Threshold ft Heading 23
Runway 20L Length 13123 ft Width 197 ft
Elevation 15 ft Threshold ft Heading 203
Runway 02L Length 13123 ft width 197 ft
Elevation 22 ft Threshold ft Heading 23
Runway 20R Length 13123 ft Width 197 ft
Elevation 14 ft Threshold 2429 ft Heading 203
Airport Frequencies
Type A/D Name APP/DEP Frequency 120.3 MHZ
Type ARR Name ARR Frequency 119.3 MHZ
Type ATIS Name ATIS Frequency 128.6 MHZ
Type CLD Name CLNC DEL Frequency 121.65 MHZ
Type GND Name GND Frequency 124.3 MHZ
Type TWR Name TWR Frequency 118.6 MHZ
Airport Navaids
Type NDB Name Bedok Frequency 232 KHZ
Type VOR-DME Name Tekong Frequency 116500 KHZ
Airport Weather Information & NOTAM
ADDS - METARS form results

(2115 UTC 02 July 2022)
Data provider http://aviationweather.gov/metar/data/
 
METAR text: WSSS 022100Z 19004KT 9999 FEW018 BKN300 27/24 Q1007 NOSIG
Conditions at: WSSS (SINGAPORE/CHANGI, SG) observed 2100 UTC 02 July 2022
Temperature: 27.0°C (81°F)
Dewpoint: 24.0°C (75°F) [RH = 84%]
Pressure (altimeter): 29.73 inches Hg (1007.0 mb)
Winds: from the S (190 degrees) at 5 MPH (4 knots; 2.1 m/s)
Visibility: 6 or more miles (10+ km)
Ceiling: 30000 feet AGL
Clouds: few clouds at 1800 feet AGL
broken clouds at 30000 feet AGL
Weather: no significant weather observed at this time

METAR text: WSSS 022030Z 16005KT 9999 FEW018 BKN300 27/24 Q1007 NOSIG
Conditions at: WSSS (SINGAPORE/CHANGI, SG) observed 2030 UTC 02 July 2022
Temperature: 27.0°C (81°F)
Dewpoint: 24.0°C (75°F) [RH = 84%]
Pressure (altimeter): 29.73 inches Hg (1007.0 mb)
Winds: from the SSE (160 degrees) at 6 MPH (5 knots; 2.6 m/s)
Visibility: 6 or more miles (10+ km)
Ceiling: 30000 feet AGL
Clouds: few clouds at 1800 feet AGL
broken clouds at 30000 feet AGL
Weather: no significant weather observed at this time

Forecast for: WSSS (SINGAPORE/CHANGI, SG)
Text: TAF WSSS 021700Z 0218/0400 17009KT 9999 FEW015 SCT020
Forecast period: 1800 UTC 02 July 2022 to 0000 UTC 04 July 2022
Forecast type: FROM: standard forecast or significant change
Winds: from the S (170 degrees) at 10 MPH (9 knots; 4.6 m/s)
Visibility: 6 or more miles (10+ km)
Ceiling: at least 12,000 feet AGL
Clouds: few clouds at 1500 feet AGL
scattered clouds at 2000 feet AGL
Weather: no significant weather forecast for this period